sensor_id;sensor_type;location;lat;lon;timestamp;P1;durP1;ratioP1;P2;durP2;ratioP2
69240;SDS011;56352;55.750;13.198;2023-02-28T00:00:29;8.45;;;5.07;;
69240;SDS011;56352;55.750;13.198;2023-02-28T00:02:55;8.15;;;4.72;;
69240;SDS011;56352;55.750;13.198;2023-02-28T00:05:23;11.73;;;4.85;;
69240;SDS011;56352;55.750;13.198;2023-02-28T00:07:50;8.02;;;5.85;;
69240;SDS011;56352;55.750;13.198;2023-02-28T00:10:18;6.00;;;4.45;;
69240;SDS011;56352;55.750;13.198;2023-02-28T00:12:47;6.40;;;4.53;;
69240;SDS011;56352;55.750;13.198;2023-02-28T00:15:14;6.75;;;4.70;;
69240;SDS011;56352;55.750;13.198;2023-02-28T00:17:41;7.97;;;4.63;;
69240;SDS011;56352;55.750;13.198;2023-02-28T00:20:08;10.00;;;5.22;;
69240;SDS011;56352;55.750;13.198;2023-02-28T00:22:36;8.35;;;4.53;;
69240;SDS011;56352;55.750;13.198;2023-02-28T00:25:08;9.52;;;5.03;;
69240;SDS011;56352;55.750;13.198;2023-02-28T00:27:35;9.32;;;5.28;;
69240;SDS011;56352;55.750;13.198;2023-02-28T00:30:03;11.05;;;4.80;;
69240;SDS011;56352;55.750;13.198;2023-02-28T00:32:30;10.52;;;6.07;;
69240;SDS011;56352;55.750;13.198;2023-02-28T00:34:57;9.43;;;5.28;;
69240;SDS011;56352;55.750;13.198;2023-02-28T00:37:23;11.02;;;5.45;;
69240;SDS011;56352;55.750;13.198;2023-02-28T00:39:50;12.13;;;5.78;;
69240;SDS011;56352;55.750;13.198;2023-02-28T00:42:16;8.70;;;5.25;;
69240;SDS011;56352;55.750;13.198;2023-02-28T00:44:43;8.82;;;4.80;;
69240;SDS011;56352;55.750;13.198;2023-02-28T00:47:10;9.13;;;5.45;;
69240;SDS011;56352;55.750;13.198;2023-02-28T00:49:36;9.23;;;5.18;;
69240;SDS011;56352;55.750;13.198;2023-02-28T00:52:03;9.85;;;5.57;;
69240;SDS011;56352;55.750;13.198;2023-02-28T00:54:30;9.30;;;5.90;;
69240;SDS011;56352;55.750;13.198;2023-02-28T00:56:56;8.77;;;5.30;;
69240;SDS011;56352;55.750;13.198;2023-02-28T00:59:24;13.45;;;5.90;;
69240;SDS011;56352;55.750;13.198;2023-02-28T01:01:50;9.85;;;5.63;;
69240;SDS011;56352;55.750;13.198;2023-02-28T01:04:17;9.40;;;5.95;;
69240;SDS011;56352;55.750;13.198;2023-02-28T01:06:44;11.23;;;6.47;;
69240;SDS011;56352;55.750;13.198;2023-02-28T01:09:10;10.10;;;5.07;;
69240;SDS011;56352;55.750;13.198;2023-02-28T01:11:37;12.63;;;6.03;;
69240;SDS011;56352;55.750;13.198;2023-02-28T01:14:05;12.05;;;6.28;;
69240;SDS011;56352;55.750;13.198;2023-02-28T01:16:31;12.88;;;6.38;;
69240;SDS011;56352;55.750;13.198;2023-02-28T01:18:58;12.30;;;6.63;;
69240;SDS011;56352;55.750;13.198;2023-02-28T01:21:24;12.38;;;6.13;;
69240;SDS011;56352;55.750;13.198;2023-02-28T01:23:51;9.40;;;6.45;;
69240;SDS011;56352;55.750;13.198;2023-02-28T01:26:21;13.73;;;6.30;;
69240;SDS011;56352;55.750;13.198;2023-02-28T01:28:49;14.18;;;6.57;;
69240;SDS011;56352;55.750;13.198;2023-02-28T01:31:16;15.57;;;6.50;;
69240;SDS011;56352;55.750;13.198;2023-02-28T01:33:44;11.68;;;6.30;;
69240;SDS011;56352;55.750;13.198;2023-02-28T01:36:13;10.98;;;6.13;;
69240;SDS011;56352;55.750;13.198;2023-02-28T01:38:41;14.27;;;6.38;;
69240;SDS011;56352;55.750;13.198;2023-02-28T01:41:08;12.02;;;6.50;;
69240;SDS011;56352;55.750;13.198;2023-02-28T01:49:23;9.30;;;5.78;;
69240;SDS011;56352;55.750;13.198;2023-02-28T01:51:51;12.88;;;6.10;;
69240;SDS011;56352;55.750;13.198;2023-02-28T01:54:22;12.70;;;6.35;;
69240;SDS011;56352;55.750;13.198;2023-02-28T01:57:00;12.65;;;6.72;;
69240;SDS011;56352;55.750;13.198;2023-02-28T01:59:38;9.00;;;5.95;;
69240;SDS011;56352;55.750;13.198;2023-02-28T02:02:12;9.65;;;5.70;;
69240;SDS011;56352;55.750;13.198;2023-02-28T02:04:41;9.60;;;5.93;;
69240;SDS011;56352;55.750;13.198;2023-02-28T02:07:23;12.48;;;6.68;;
69240;SDS011;56352;55.750;13.198;2023-02-28T02:09:50;11.93;;;6.15;;
69240;SDS011;56352;55.750;13.198;2023-02-28T02:12:21;11.18;;;6.05;;
69240;SDS011;56352;55.750;13.198;2023-02-28T02:15:05;16.70;;;6.65;;
69240;SDS011;56352;55.750;13.198;2023-02-28T02:17:44;9.10;;;5.70;;
69240;SDS011;56352;55.750;13.198;2023-02-28T02:20:20;11.13;;;6.45;;
69240;SDS011;56352;55.750;13.198;2023-02-28T02:39:53;11.95;;;6.63;;
69240;SDS011;56352;55.750;13.198;2023-02-28T02:42:23;12.02;;;6.43;;
69240;SDS011;56352;55.750;13.198;2023-02-28T02:44:56;11.90;;;7.03;;
69240;SDS011;56352;55.750;13.198;2023-02-28T02:47:37;14.23;;;7.13;;
69240;SDS011;56352;55.750;13.198;2023-02-28T02:50:05;12.77;;;6.82;;
69240;SDS011;56352;55.750;13.198;2023-02-28T02:52:42;10.52;;;6.38;;
69240;SDS011;56352;55.750;13.198;2023-02-28T02:55:12;13.50;;;6.60;;
69240;SDS011;56352;55.750;13.198;2023-02-28T02:57:49;14.38;;;7.50;;
69240;SDS011;56352;55.750;13.198;2023-02-28T03:00:19;14.05;;;7.72;;
69240;SDS011;56352;55.750;13.198;2023-02-28T03:02:50;13.27;;;7.10;;
69240;SDS011;56352;55.750;13.198;2023-02-28T03:06:01;14.00;;;7.67;;
69240;SDS011;56352;55.750;13.198;2023-02-28T03:08:10;12.05;;;6.35;;
69240;SDS011;56352;55.750;13.198;2023-02-28T03:10:38;13.25;;;7.18;;
69240;SDS011;56352;55.750;13.198;2023-02-28T03:15:43;13.52;;;7.65;;
69240;SDS011;56352;55.750;13.198;2023-02-28T03:18:29;10.73;;;6.82;;
69240;SDS011;56352;55.750;13.198;2023-02-28T03:23:56;17.83;;;7.28;;
69240;SDS011;56352;55.750;13.198;2023-02-28T03:26:29;14.38;;;7.65;;
69240;SDS011;56352;55.750;13.198;2023-02-28T03:29:03;20.45;;;7.95;;
69240;SDS011;56352;55.750;13.198;2023-02-28T03:31:35;12.90;;;7.47;;
69240;SDS011;56352;55.750;13.198;2023-02-28T03:34:08;11.00;;;7.22;;
69240;SDS011;56352;55.750;13.198;2023-02-28T03:36:39;18.52;;;8.20;;
69240;SDS011;56352;55.750;13.198;2023-02-28T03:39:19;18.10;;;8.75;;
69240;SDS011;56352;55.750;13.198;2023-02-28T03:41:56;17.65;;;8.82;;
69240;SDS011;56352;55.750;13.198;2023-02-28T03:44:26;19.73;;;9.30;;
69240;SDS011;56352;55.750;13.198;2023-02-28T03:47:02;18.90;;;9.65;;
69240;SDS011;56352;55.750;13.198;2023-02-28T03:49:32;22.77;;;10.80;;
69240;SDS011;56352;55.750;13.198;2023-02-28T03:52:02;19.45;;;9.18;;
69240;SDS011;56352;55.750;13.198;2023-02-28T03:54:44;23.13;;;10.98;;
69240;SDS011;56352;55.750;13.198;2023-02-28T03:57:18;22.45;;;9.88;;
69240;SDS011;56352;55.750;13.198;2023-02-28T04:00:40;15.48;;;9.13;;
69240;SDS011;56352;55.750;13.198;2023-02-28T04:02:48;18.25;;;9.18;;
69240;SDS011;56352;55.750;13.198;2023-02-28T04:05:21;20.08;;;9.52;;
69240;SDS011;56352;55.750;13.198;2023-02-28T04:07:48;16.85;;;9.35;;
69240;SDS011;56352;55.750;13.198;2023-02-28T04:10:15;17.77;;;9.98;;
69240;SDS011;56352;55.750;13.198;2023-02-28T04:12:42;18.42;;;8.95;;
69240;SDS011;56352;55.750;13.198;2023-02-28T04:15:09;22.38;;;9.02;;
69240;SDS011;56352;55.750;13.198;2023-02-28T04:17:36;20.38;;;9.10;;
69240;SDS011;56352;55.750;13.198;2023-02-28T04:20:03;23.77;;;9.50;;
69240;SDS011;56352;55.750;13.198;2023-02-28T04:22:35;16.58;;;8.68;;
69240;SDS011;56352;55.750;13.198;2023-02-28T04:25:03;21.48;;;10.00;;
69240;SDS011;56352;55.750;13.198;2023-02-28T04:27:31;19.77;;;10.02;;
69240;SDS011;56352;55.750;13.198;2023-02-28T04:29:58;16.63;;;9.48;;
69240;SDS011;56352;55.750;13.198;2023-02-28T04:32:25;21.17;;;9.38;;
69240;SDS011;56352;55.750;13.198;2023-02-28T04:34:52;23.58;;;10.55;;
69240;SDS011;56352;55.750;13.198;2023-02-28T04:37:18;18.88;;;10.25;;
69240;SDS011;56352;55.750;13.198;2023-02-28T04:39:45;17.35;;;9.45;;
69240;SDS011;56352;55.750;13.198;2023-02-28T04:42:12;17.50;;;9.52;;
69240;SDS011;56352;55.750;13.198;2023-02-28T04:44:39;20.55;;;9.20;;
69240;SDS011;56352;55.750;13.198;2023-02-28T04:47:05;16.52;;;9.40;;
69240;SDS011;56352;55.750;13.198;2023-02-28T04:49:32;23.40;;;10.57;;
69240;SDS011;56352;55.750;13.198;2023-02-28T04:51:58;26.20;;;9.82;;
69240;SDS011;56352;55.750;13.198;2023-02-28T04:54:25;23.55;;;10.73;;
69240;SDS011;56352;55.750;13.198;2023-02-28T04:56:52;20.80;;;9.77;;
69240;SDS011;56352;55.750;13.198;2023-02-28T04:59:19;19.02;;;9.75;;
69240;SDS011;56352;55.750;13.198;2023-02-28T05:01:46;17.92;;;8.77;;
69240;SDS011;56352;55.750;13.198;2023-02-28T05:04:13;18.75;;;8.80;;
69240;SDS011;56352;55.750;13.198;2023-02-28T05:06:40;18.30;;;9.52;;
69240;SDS011;56352;55.750;13.198;2023-02-28T05:09:07;18.58;;;9.38;;
69240;SDS011;56352;55.750;13.198;2023-02-28T05:11:33;26.48;;;10.73;;
69240;SDS011;56352;55.750;13.198;2023-02-28T05:14:04;18.27;;;9.02;;
69240;SDS011;56352;55.750;13.198;2023-02-28T05:16:33;19.45;;;10.05;;
69240;SDS011;56352;55.750;13.198;2023-02-28T05:19:00;15.75;;;9.23;;
69240;SDS011;56352;55.750;13.198;2023-02-28T05:21:33;19.70;;;9.68;;
69240;SDS011;56352;55.750;13.198;2023-02-28T05:24:10;19.20;;;9.20;;
69240;SDS011;56352;55.750;13.198;2023-02-28T05:26:38;20.88;;;8.98;;
69240;SDS011;56352;55.750;13.198;2023-02-28T05:29:07;18.48;;;9.75;;
69240;SDS011;56352;55.750;13.198;2023-02-28T05:31:34;19.10;;;8.98;;
69240;SDS011;56352;55.750;13.198;2023-02-28T05:34:01;17.40;;;8.45;;
69240;SDS011;56352;55.750;13.198;2023-02-28T05:36:27;17.73;;;9.10;;
69240;SDS011;56352;55.750;13.198;2023-02-28T05:38:54;17.80;;;9.60;;
69240;SDS011;56352;55.750;13.198;2023-02-28T05:41:21;21.65;;;9.07;;
69240;SDS011;56352;55.750;13.198;2023-02-28T05:43:47;20.33;;;9.25;;
69240;SDS011;56352;55.750;13.198;2023-02-28T05:46:14;23.02;;;9.80;;
69240;SDS011;56352;55.750;13.198;2023-02-28T05:48:42;30.70;;;10.55;;
69240;SDS011;56352;55.750;13.198;2023-02-28T05:51:09;24.02;;;10.55;;
69240;SDS011;56352;55.750;13.198;2023-02-28T05:53:36;22.60;;;9.82;;
69240;SDS011;56352;55.750;13.198;2023-02-28T05:56:02;22.10;;;10.55;;
69240;SDS011;56352;55.750;13.198;2023-02-28T05:58:30;23.67;;;11.02;;
69240;SDS011;56352;55.750;13.198;2023-02-28T06:01:00;21.30;;;11.05;;
69240;SDS011;56352;55.750;13.198;2023-02-28T06:03:49;21.55;;;10.80;;
69240;SDS011;56352;55.750;13.198;2023-02-28T06:06:16;22.20;;;10.52;;
69240;SDS011;56352;55.750;13.198;2023-02-28T06:08:42;23.55;;;11.15;;
69240;SDS011;56352;55.750;13.198;2023-02-28T06:11:10;24.65;;;10.65;;
69240;SDS011;56352;55.750;13.198;2023-02-28T06:13:37;22.60;;;10.43;;
69240;SDS011;56352;55.750;13.198;2023-02-28T06:16:04;22.95;;;10.95;;
69240;SDS011;56352;55.750;13.198;2023-02-28T06:18:31;22.13;;;10.90;;
69240;SDS011;56352;55.750;13.198;2023-02-28T06:20:58;22.35;;;11.23;;
69240;SDS011;56352;55.750;13.198;2023-02-28T06:23:24;24.08;;;10.85;;
69240;SDS011;56352;55.750;13.198;2023-02-28T06:25:51;26.17;;;11.23;;
69240;SDS011;56352;55.750;13.198;2023-02-28T06:28:19;25.27;;;11.55;;
69240;SDS011;56352;55.750;13.198;2023-02-28T06:30:45;22.35;;;10.70;;
69240;SDS011;56352;55.750;13.198;2023-02-28T06:33:12;18.52;;;10.57;;
69240;SDS011;56352;55.750;13.198;2023-02-28T06:35:38;26.58;;;11.80;;
69240;SDS011;56352;55.750;13.198;2023-02-28T06:38:05;25.98;;;11.63;;
69240;SDS011;56352;55.750;13.198;2023-02-28T06:40:32;30.88;;;11.85;;
69240;SDS011;56352;55.750;13.198;2023-02-28T06:43:01;28.40;;;10.93;;
69240;SDS011;56352;55.750;13.198;2023-02-28T06:45:28;22.48;;;11.27;;
69240;SDS011;56352;55.750;13.198;2023-02-28T06:47:55;29.02;;;11.20;;
69240;SDS011;56352;55.750;13.198;2023-02-28T06:50:22;21.63;;;11.32;;
69240;SDS011;56352;55.750;13.198;2023-02-28T06:52:48;24.40;;;11.13;;
69240;SDS011;56352;55.750;13.198;2023-02-28T06:55:20;19.50;;;10.57;;
69240;SDS011;56352;55.750;13.198;2023-02-28T06:57:46;20.20;;;10.43;;
69240;SDS011;56352;55.750;13.198;2023-02-28T07:00:13;21.45;;;11.20;;
69240;SDS011;56352;55.750;13.198;2023-02-28T07:02:40;20.65;;;10.43;;
69240;SDS011;56352;55.750;13.198;2023-02-28T07:05:07;18.50;;;10.40;;
69240;SDS011;56352;55.750;13.198;2023-02-28T07:07:34;19.52;;;10.00;;
69240;SDS011;56352;55.750;13.198;2023-02-28T07:10:02;16.00;;;9.63;;
69240;SDS011;56352;55.750;13.198;2023-02-28T07:12:29;19.10;;;9.25;;
69240;SDS011;56352;55.750;13.198;2023-02-28T07:14:55;19.48;;;10.10;;
69240;SDS011;56352;55.750;13.198;2023-02-28T07:17:22;26.23;;;10.70;;
69240;SDS011;56352;55.750;13.198;2023-02-28T07:19:49;23.38;;;10.73;;
69240;SDS011;56352;55.750;13.198;2023-02-28T07:22:16;22.30;;;10.65;;
69240;SDS011;56352;55.750;13.198;2023-02-28T07:24:42;18.90;;;11.30;;
69240;SDS011;56352;55.750;13.198;2023-02-28T07:27:09;19.00;;;9.95;;
69240;SDS011;56352;55.750;13.198;2023-02-28T07:29:36;19.70;;;11.38;;
69240;SDS011;56352;55.750;13.198;2023-02-28T07:32:03;19.55;;;10.73;;
69240;SDS011;56352;55.750;13.198;2023-02-28T07:34:30;22.13;;;11.32;;
69240;SDS011;56352;55.750;13.198;2023-02-28T07:36:57;22.60;;;11.07;;
69240;SDS011;56352;55.750;13.198;2023-02-28T07:39:23;22.08;;;11.07;;
69240;SDS011;56352;55.750;13.198;2023-02-28T07:41:50;21.75;;;11.10;;
69240;SDS011;56352;55.750;13.198;2023-02-28T07:44:16;20.88;;;11.20;;
69240;SDS011;56352;55.750;13.198;2023-02-28T07:46:43;20.73;;;10.45;;
69240;SDS011;56352;55.750;13.198;2023-02-28T07:49:10;20.08;;;10.85;;
69240;SDS011;56352;55.750;13.198;2023-02-28T07:51:36;21.95;;;10.30;;
69240;SDS011;56352;55.750;13.198;2023-02-28T07:54:03;18.63;;;10.45;;
69240;SDS011;56352;55.750;13.198;2023-02-28T07:56:30;21.27;;;10.55;;
69240;SDS011;56352;55.750;13.198;2023-02-28T07:58:57;20.15;;;10.88;;
69240;SDS011;56352;55.750;13.198;2023-02-28T08:01:24;19.60;;;10.38;;
69240;SDS011;56352;55.750;13.198;2023-02-28T08:03:51;18.23;;;10.10;;
69240;SDS011;56352;55.750;13.198;2023-02-28T08:06:18;21.33;;;10.20;;
69240;SDS011;56352;55.750;13.198;2023-02-28T08:08:47;19.35;;;10.63;;
69240;SDS011;56352;55.750;13.198;2023-02-28T08:11:14;19.33;;;10.40;;
69240;SDS011;56352;55.750;13.198;2023-02-28T08:13:41;25.40;;;10.18;;
69240;SDS011;56352;55.750;13.198;2023-02-28T08:16:08;20.42;;;9.55;;
69240;SDS011;56352;55.750;13.198;2023-02-28T08:18:35;18.50;;;10.45;;
69240;SDS011;56352;55.750;13.198;2023-02-28T08:21:06;18.67;;;9.80;;
69240;SDS011;56352;55.750;13.198;2023-02-28T08:23:33;21.70;;;10.02;;
69240;SDS011;56352;55.750;13.198;2023-02-28T08:26:00;19.17;;;10.73;;
69240;SDS011;56352;55.750;13.198;2023-02-28T08:28:27;19.60;;;10.35;;
69240;SDS011;56352;55.750;13.198;2023-02-28T08:30:54;20.50;;;10.90;;
69240;SDS011;56352;55.750;13.198;2023-02-28T08:33:21;18.00;;;10.07;;
69240;SDS011;56352;55.750;13.198;2023-02-28T08:35:51;18.70;;;9.98;;
69240;SDS011;56352;55.750;13.198;2023-02-28T08:38:19;13.38;;;8.85;;
69240;SDS011;56352;55.750;13.198;2023-02-28T08:40:45;14.13;;;8.63;;
69240;SDS011;56352;55.750;13.198;2023-02-28T08:43:12;15.05;;;8.27;;
69240;SDS011;56352;55.750;13.198;2023-02-28T08:45:39;13.88;;;9.02;;
69240;SDS011;56352;55.750;13.198;2023-02-28T08:48:05;12.35;;;8.00;;
69240;SDS011;56352;55.750;13.198;2023-02-28T08:50:32;12.88;;;8.73;;
69240;SDS011;56352;55.750;13.198;2023-02-28T08:52:58;12.98;;;8.65;;
69240;SDS011;56352;55.750;13.198;2023-02-28T08:55:26;16.50;;;9.27;;
69240;SDS011;56352;55.750;13.198;2023-02-28T08:57:52;14.40;;;9.20;;
69240;SDS011;56352;55.750;13.198;2023-02-28T09:00:19;16.52;;;9.82;;
69240;SDS011;56352;55.750;13.198;2023-02-28T09:02:46;15.85;;;8.75;;
69240;SDS011;56352;55.750;13.198;2023-02-28T09:05:13;12.63;;;8.23;;
69240;SDS011;56352;55.750;13.198;2023-02-28T09:07:40;15.48;;;9.45;;
69240;SDS011;56352;55.750;13.198;2023-02-28T09:10:07;15.48;;;9.20;;
69240;SDS011;56352;55.750;13.198;2023-02-28T09:12:34;16.00;;;9.32;;
69240;SDS011;56352;55.750;13.198;2023-02-28T09:15:01;16.92;;;8.98;;
69240;SDS011;56352;55.750;13.198;2023-02-28T09:17:28;14.70;;;9.00;;
69240;SDS011;56352;55.750;13.198;2023-02-28T09:19:56;12.05;;;8.55;;
69240;SDS011;56352;55.750;13.198;2023-02-28T09:22:23;16.17;;;8.93;;
69240;SDS011;56352;55.750;13.198;2023-02-28T09:24:50;14.15;;;8.57;;
69240;SDS011;56352;55.750;13.198;2023-02-28T09:27:16;17.80;;;10.20;;
69240;SDS011;56352;55.750;13.198;2023-02-28T09:29:43;17.10;;;10.07;;
69240;SDS011;56352;55.750;13.198;2023-02-28T09:32:10;20.25;;;10.20;;
69240;SDS011;56352;55.750;13.198;2023-02-28T09:34:37;21.55;;;10.80;;
69240;SDS011;56352;55.750;13.198;2023-02-28T09:37:04;16.50;;;10.25;;
69240;SDS011;56352;55.750;13.198;2023-02-28T09:39:31;17.65;;;10.27;;
69240;SDS011;56352;55.750;13.198;2023-02-28T09:41:57;17.30;;;10.43;;
69240;SDS011;56352;55.750;13.198;2023-02-28T09:44:46;15.25;;;9.45;;
69240;SDS011;56352;55.750;13.198;2023-02-28T09:47:28;13.18;;;8.85;;
69240;SDS011;56352;55.750;13.198;2023-02-28T09:50:01;15.65;;;9.50;;
69240;SDS011;56352;55.750;13.198;2023-02-28T09:52:33;16.75;;;9.43;;
69240;SDS011;56352;55.750;13.198;2023-02-28T09:55:20;19.00;;;10.25;;
69240;SDS011;56352;55.750;13.198;2023-02-28T09:57:54;16.30;;;9.60;;
69240;SDS011;56352;55.750;13.198;2023-02-28T10:00:24;16.92;;;9.43;;
69240;SDS011;56352;55.750;13.198;2023-02-28T10:05:41;15.85;;;9.13;;
69240;SDS011;56352;55.750;13.198;2023-02-28T10:11:02;16.88;;;9.40;;
69240;SDS011;56352;55.750;13.198;2023-02-28T10:13:34;12.80;;;8.57;;
69240;SDS011;56352;55.750;13.198;2023-02-28T10:16:10;14.95;;;8.77;;
69240;SDS011;56352;55.750;13.198;2023-02-28T10:18:41;13.02;;;8.60;;
69240;SDS011;56352;55.750;13.198;2023-02-28T10:21:15;15.75;;;8.85;;
69240;SDS011;56352;55.750;13.198;2023-02-28T10:23:48;13.38;;;7.82;;
69240;SDS011;56352;55.750;13.198;2023-02-28T10:26:16;17.27;;;9.70;;
69240;SDS011;56352;55.750;13.198;2023-02-28T10:28:44;13.10;;;9.03;;
69240;SDS011;56352;55.750;13.198;2023-02-28T10:31:11;16.25;;;9.23;;
69240;SDS011;56352;55.750;13.198;2023-02-28T10:33:42;14.73;;;8.57;;
69240;SDS011;56352;55.750;13.198;2023-02-28T10:36:11;14.05;;;8.88;;
69240;SDS011;56352;55.750;13.198;2023-02-28T10:38:41;13.43;;;9.05;;
69240;SDS011;56352;55.750;13.198;2023-02-28T10:41:08;13.70;;;8.10;;
69240;SDS011;56352;55.750;13.198;2023-02-28T10:43:37;13.65;;;8.80;;
69240;SDS011;56352;55.750;13.198;2023-02-28T10:48:38;15.65;;;8.35;;
69240;SDS011;56352;55.750;13.198;2023-02-28T10:51:10;12.75;;;8.25;;
69240;SDS011;56352;55.750;13.198;2023-02-28T10:53:50;11.55;;;7.78;;
69240;SDS011;56352;55.750;13.198;2023-02-28T10:56:28;11.60;;;7.95;;
69240;SDS011;56352;55.750;13.198;2023-02-28T11:01:42;11.68;;;7.70;;
69240;SDS011;56352;55.750;13.198;2023-02-28T11:06:59;11.63;;;7.22;;
69240;SDS011;56352;55.750;13.198;2023-02-28T11:12:04;11.35;;;7.75;;
69240;SDS011;56352;55.750;13.198;2023-02-28T11:14:35;13.00;;;7.63;;
69240;SDS011;56352;55.750;13.198;2023-02-28T11:17:40;16.15;;;8.57;;
69240;SDS011;56352;55.750;13.198;2023-02-28T11:20:00;11.00;;;7.28;;
69240;SDS011;56352;55.750;13.198;2023-02-28T11:22:30;14.45;;;8.35;;
69240;SDS011;56352;55.750;13.198;2023-02-28T11:25:00;10.98;;;7.40;;
69240;SDS011;56352;55.750;13.198;2023-02-28T11:30:00;11.50;;;7.43;;
69240;SDS011;56352;55.750;13.198;2023-02-28T11:32:27;11.40;;;7.38;;
69240;SDS011;56352;55.750;13.198;2023-02-28T11:37:35;12.23;;;7.68;;
69240;SDS011;56352;55.750;13.198;2023-02-28T11:40:02;12.52;;;7.82;;
69240;SDS011;56352;55.750;13.198;2023-02-28T11:47:48;9.75;;;6.10;;
69240;SDS011;56352;55.750;13.198;2023-02-28T11:53:13;10.43;;;6.35;;
69240;SDS011;56352;55.750;13.198;2023-02-28T12:02:18;10.27;;;6.05;;
69240;SDS011;56352;55.750;13.198;2023-02-28T12:10:03;8.77;;;5.40;;
69240;SDS011;56352;55.750;13.198;2023-02-28T12:20:46;10.65;;;6.18;;
69240;SDS011;56352;55.750;13.198;2023-02-28T12:28:20;8.57;;;5.18;;
69240;SDS011;56352;55.750;13.198;2023-02-28T12:30:55;8.05;;;5.80;;
69240;SDS011;56352;55.750;13.198;2023-02-28T12:33:26;6.65;;;5.15;;
69240;SDS011;56352;55.750;13.198;2023-02-28T12:35:59;6.75;;;4.80;;
69240;SDS011;56352;55.750;13.198;2023-02-28T12:38:29;7.03;;;4.85;;
69240;SDS011;56352;55.750;13.198;2023-02-28T12:41:12;7.82;;;4.47;;
69240;SDS011;56352;55.750;13.198;2023-02-28T12:43:48;6.25;;;4.55;;
69240;SDS011;56352;55.750;13.198;2023-02-28T12:48:53;7.43;;;4.75;;
69240;SDS011;56352;55.750;13.198;2023-02-28T12:51:24;6.97;;;5.78;;
69240;SDS011;56352;55.750;13.198;2023-02-28T12:56:57;10.30;;;6.30;;
69240;SDS011;56352;55.750;13.198;2023-02-28T13:10:47;8.52;;;5.75;;
69240;SDS011;56352;55.750;13.198;2023-02-28T13:13:21;10.48;;;5.75;;
69240;SDS011;56352;55.750;13.198;2023-02-28T13:18:42;8.23;;;6.78;;
69240;SDS011;56352;55.750;13.198;2023-02-28T13:21:22;8.75;;;7.15;;
69240;SDS011;56352;55.750;13.198;2023-02-28T13:47:53;9.55;;;8.40;;
69240;SDS011;56352;55.750;13.198;2023-02-28T13:50:38;10.65;;;8.50;;
69240;SDS011;56352;55.750;13.198;2023-02-28T14:06:51;7.68;;;6.53;;
69240;SDS011;56352;55.750;13.198;2023-02-28T14:09:27;11.70;;;6.32;;
69240;SDS011;56352;55.750;13.198;2023-02-28T14:18:28;6.72;;;4.50;;
69240;SDS011;56352;55.750;13.198;2023-02-28T14:20:57;8.52;;;4.20;;
69240;SDS011;56352;55.750;13.198;2023-02-28T14:31:28;6.75;;;4.40;;
69240;SDS011;56352;55.750;13.198;2023-02-28T14:36:39;6.65;;;4.43;;
69240;SDS011;56352;55.750;13.198;2023-02-28T14:39:11;5.75;;;4.18;;
69240;SDS011;56352;55.750;13.198;2023-02-28T14:41:40;5.57;;;4.35;;
69240;SDS011;56352;55.750;13.198;2023-02-28T14:44:24;5.60;;;4.37;;
69240;SDS011;56352;55.750;13.198;2023-02-28T14:47:01;8.25;;;4.57;;
69240;SDS011;56352;55.750;13.198;2023-02-28T14:49:35;8.77;;;5.03;;
69240;SDS011;56352;55.750;13.198;2023-02-28T14:52:12;7.25;;;4.53;;
69240;SDS011;56352;55.750;13.198;2023-02-28T14:54:43;8.00;;;5.07;;
69240;SDS011;56352;55.750;13.198;2023-02-28T14:57:24;7.25;;;5.28;;
69240;SDS011;56352;55.750;13.198;2023-02-28T15:02:38;8.82;;;5.20;;
69240;SDS011;56352;55.750;13.198;2023-02-28T15:07:44;9.98;;;7.63;;
69240;SDS011;56352;55.750;13.198;2023-02-28T15:12:38;12.60;;;8.07;;
69240;SDS011;56352;55.750;13.198;2023-02-28T15:15:06;13.38;;;8.38;;
69240;SDS011;56352;55.750;13.198;2023-02-28T15:17:33;11.77;;;7.22;;
69240;SDS011;56352;55.750;13.198;2023-02-28T15:20:01;10.82;;;7.55;;
69240;SDS011;56352;55.750;13.198;2023-02-28T15:22:30;12.30;;;8.68;;
69240;SDS011;56352;55.750;13.198;2023-02-28T15:25:01;11.70;;;7.93;;
69240;SDS011;56352;55.750;13.198;2023-02-28T15:27:31;12.35;;;7.70;;
69240;SDS011;56352;55.750;13.198;2023-02-28T15:29:59;12.38;;;7.85;;
69240;SDS011;56352;55.750;13.198;2023-02-28T15:32:37;14.85;;;8.30;;
69240;SDS011;56352;55.750;13.198;2023-02-28T15:37:47;11.52;;;8.40;;
69240;SDS011;56352;55.750;13.198;2023-02-28T15:40:29;10.23;;;7.45;;
69240;SDS011;56352;55.750;13.198;2023-02-28T15:43:07;13.27;;;7.88;;
69240;SDS011;56352;55.750;13.198;2023-02-28T15:45:48;13.73;;;7.70;;
69240;SDS011;56352;55.750;13.198;2023-02-28T15:48:18;11.07;;;7.07;;
69240;SDS011;56352;55.750;13.198;2023-02-28T15:50:51;13.30;;;7.15;;
69240;SDS011;56352;55.750;13.198;2023-02-28T15:53:20;12.45;;;7.22;;
69240;SDS011;56352;55.750;13.198;2023-02-28T15:56:03;12.93;;;7.45;;
69240;SDS011;56352;55.750;13.198;2023-02-28T15:58:32;12.45;;;7.22;;
69240;SDS011;56352;55.750;13.198;2023-02-28T16:01:16;15.38;;;7.72;;
69240;SDS011;56352;55.750;13.198;2023-02-28T16:03:45;11.48;;;7.60;;
69240;SDS011;56352;55.750;13.198;2023-02-28T16:08:50;14.68;;;7.78;;
69240;SDS011;56352;55.750;13.198;2023-02-28T16:11:17;12.35;;;6.97;;
69240;SDS011;56352;55.750;13.198;2023-02-28T16:13:45;17.30;;;7.60;;
69240;SDS011;56352;55.750;13.198;2023-02-28T16:16:19;16.50;;;7.40;;
69240;SDS011;56352;55.750;13.198;2023-02-28T16:18:47;15.05;;;7.82;;
69240;SDS011;56352;55.750;13.198;2023-02-28T16:21:14;13.10;;;7.70;;
69240;SDS011;56352;55.750;13.198;2023-02-28T16:23:41;14.55;;;7.57;;
69240;SDS011;56352;55.750;13.198;2023-02-28T16:26:08;13.55;;;7.13;;
69240;SDS011;56352;55.750;13.198;2023-02-28T16:28:42;13.18;;;7.40;;
69240;SDS011;56352;55.750;13.198;2023-02-28T16:31:09;15.93;;;7.53;;
69240;SDS011;56352;55.750;13.198;2023-02-28T16:33:40;13.00;;;7.22;;
69240;SDS011;56352;55.750;13.198;2023-02-28T16:36:09;14.65;;;7.18;;
69240;SDS011;56352;55.750;13.198;2023-02-28T16:38:39;11.25;;;7.18;;
69240;SDS011;56352;55.750;13.198;2023-02-28T16:41:06;14.35;;;7.40;;
69240;SDS011;56352;55.750;13.198;2023-02-28T16:43:32;16.67;;;7.72;;
69240;SDS011;56352;55.750;13.198;2023-02-28T16:45:59;14.93;;;6.95;;
69240;SDS011;56352;55.750;13.198;2023-02-28T16:48:27;12.45;;;6.75;;
69240;SDS011;56352;55.750;13.198;2023-02-28T16:50:54;11.57;;;6.57;;
69240;SDS011;56352;55.750;13.198;2023-02-28T16:53:20;12.45;;;7.13;;
69240;SDS011;56352;55.750;13.198;2023-02-28T16:55:48;16.65;;;7.20;;
69240;SDS011;56352;55.750;13.198;2023-02-28T16:58:17;14.57;;;7.47;;
69240;SDS011;56352;55.750;13.198;2023-02-28T17:00:45;11.60;;;6.97;;
69240;SDS011;56352;55.750;13.198;2023-02-28T17:03:22;13.90;;;7.78;;
69240;SDS011;56352;55.750;13.198;2023-02-28T17:05:58;14.68;;;6.70;;
69240;SDS011;56352;55.750;13.198;2023-02-28T17:08:25;16.23;;;7.15;;
69240;SDS011;56352;55.750;13.198;2023-02-28T17:10:51;12.88;;;6.93;;
69240;SDS011;56352;55.750;13.198;2023-02-28T17:13:18;14.57;;;7.47;;
69240;SDS011;56352;55.750;13.198;2023-02-28T17:15:45;12.20;;;7.15;;
69240;SDS011;56352;55.750;13.198;2023-02-28T17:18:17;15.30;;;7.60;;
69240;SDS011;56352;55.750;13.198;2023-02-28T17:20:45;15.60;;;7.82;;
69240;SDS011;56352;55.750;13.198;2023-02-28T17:23:12;13.88;;;7.18;;
69240;SDS011;56352;55.750;13.198;2023-02-28T17:25:39;11.30;;;7.07;;